createdAt,value
2023-04-09T00:01:25.520Z,35.40
2023-04-09T00:03:54.113Z,33.05
2023-04-09T00:06:22.313Z,33.92
2023-04-09T00:08:52.014Z,34.95
2023-04-09T00:11:20.976Z,38.03
2023-04-09T00:13:49.330Z,31.25
2023-04-09T00:16:17.414Z,30.60
2023-04-09T00:18:45.843Z,30.85
2023-04-09T00:21:14.919Z,27.65
2023-04-09T00:23:43.149Z,28.13
2023-04-09T00:26:12.853Z,32.33
2023-04-09T00:28:41.373Z,32.80
2023-04-09T00:31:10.326Z,32.28
2023-04-09T00:33:38.493Z,29.10
2023-04-09T00:36:07.058Z,29.73
2023-04-09T00:38:35.378Z,28.40
2023-04-09T00:41:03.805Z,25.38
2023-04-09T00:43:33.392Z,29.65
2023-04-09T00:46:01.946Z,27.50
2023-04-09T00:48:30.813Z,29.08
2023-04-09T00:50:59.194Z,25.60
2023-04-09T00:53:27.643Z,27.45
2023-04-09T00:55:56.662Z,26.00
2023-04-09T00:58:25.192Z,22.10
2023-04-09T01:00:55.590Z,24.85
2023-04-09T01:03:23.808Z,26.77
2023-04-09T01:06:02.154Z,27.95
2023-04-09T01:08:39.435Z,29.20
2023-04-09T01:11:22.080Z,30.42
2023-04-09T01:14:00.155Z,36.08
2023-04-09T01:16:31.299Z,33.63
2023-04-09T01:19:04.105Z,36.70
2023-04-09T01:21:35.057Z,35.53
2023-04-09T01:24:18.960Z,34.20
2023-04-09T01:26:58.430Z,37.40
2023-04-09T01:29:36.764Z,33.92
2023-04-09T01:32:07.406Z,31.42
2023-04-09T01:34:38.654Z,29.67
2023-04-09T01:37:08.546Z,35.08
2023-04-09T01:39:38.854Z,33.28
2023-04-09T01:42:11.181Z,31.38
2023-04-09T01:44:42.055Z,31.23
2023-04-09T01:47:10.974Z,37.72
2023-04-09T01:52:13.368Z,39.15
2023-04-09T01:54:42.964Z,39.53
2023-04-09T01:57:11.312Z,35.40
2023-04-09T01:59:40.858Z,31.27
2023-04-09T02:02:13.676Z,29.92
2023-04-09T02:04:45.380Z,28.77
2023-04-09T02:07:20.103Z,26.55
2023-04-09T02:09:50.554Z,26.83
2023-04-09T02:12:20.058Z,25.85
2023-04-09T02:14:52.922Z,29.17
2023-04-09T02:17:21.280Z,28.02
2023-04-09T02:19:49.792Z,33.38
2023-04-09T02:22:18.708Z,31.67
2023-04-09T02:24:47.853Z,35.75
2023-04-09T02:27:16.287Z,33.83
2023-04-09T02:29:45.024Z,33.75
2023-04-09T02:32:15.762Z,35.03
2023-04-09T02:34:44.153Z,34.03
2023-04-09T02:37:12.611Z,33.50
2023-04-09T02:39:41.016Z,34.40
2023-04-09T02:42:09.083Z,33.47
2023-04-09T02:44:37.206Z,34.10
2023-04-09T02:47:06.157Z,35.33
2023-04-09T02:49:35.946Z,32.78
2023-04-09T02:52:04.377Z,32.72
2023-04-09T02:54:32.339Z,29.25
2023-04-09T02:57:01.112Z,31.10
2023-04-09T02:59:29.246Z,32.55
2023-04-09T03:01:57.781Z,34.63
2023-04-09T03:04:26.440Z,30.58
2023-04-09T03:06:56.141Z,34.08
2023-04-09T03:09:24.194Z,31.25
2023-04-09T03:11:52.424Z,32.22
2023-04-09T03:14:20.435Z,31.08
2023-04-09T03:16:48.846Z,31.13
2023-04-09T03:19:17.133Z,29.70
2023-04-09T03:21:46.443Z,31.40
2023-04-09T03:24:16.316Z,37.38
2023-04-09T03:26:44.774Z,36.38
2023-04-09T03:29:14.907Z,36.83
2023-04-09T03:31:43.157Z,29.92
2023-04-09T03:34:11.449Z,28.45
2023-04-09T03:36:39.506Z,29.17
2023-04-09T03:39:22.183Z,28.00
2023-04-09T03:41:50.756Z,31.25
2023-04-09T03:44:19.916Z,32.50
2023-04-09T03:47:06.504Z,28.25
2023-04-09T03:49:36.688Z,29.25
2023-04-09T03:52:14.872Z,28.50
2023-04-09T03:54:47.759Z,26.17
2023-04-09T03:57:20.726Z,26.17
2023-04-09T03:59:51.766Z,26.88
2023-04-09T04:02:22.514Z,28.05
2023-04-09T04:05:00.149Z,26.30
2023-04-09T04:07:33.843Z,26.13
2023-04-09T04:10:12.581Z,31.88
2023-04-09T04:12:45.094Z,28.58
2023-04-09T04:15:22.765Z,30.95
2023-04-09T04:17:55.768Z,27.65
2023-04-09T04:20:44.813Z,26.05
2023-04-09T04:23:15.486Z,26.60
2023-04-09T04:25:54.864Z,35.60
2023-04-09T04:28:29.684Z,35.75
2023-04-09T04:30:57.945Z,34.85
2023-04-09T04:33:40.428Z,34.42
2023-04-09T04:36:14.329Z,33.33
2023-04-09T04:38:51.797Z,31.15
2023-04-09T04:41:31.897Z,30.15
2023-04-09T04:44:13.886Z,31.27
2023-04-09T04:47:08.156Z,30.00
2023-04-09T04:49:36.706Z,66.75
2023-04-09T04:52:07.872Z,91.47
2023-04-09T04:54:39.628Z,40.22
2023-04-09T04:57:12.070Z,35.30
2023-04-09T04:59:42.381Z,34.33
2023-04-09T05:02:13.430Z,34.22
2023-04-09T05:05:17.895Z,31.25
2023-04-09T05:07:52.009Z,34.20
2023-04-09T05:10:22.021Z,35.20
2023-04-09T05:12:52.696Z,32.78
2023-04-09T05:15:28.927Z,32.97
2023-04-09T05:17:58.225Z,35.13
2023-04-09T05:20:28.701Z,35.90
2023-04-09T05:23:10.326Z,33.22
2023-04-09T05:25:42.801Z,35.25
2023-04-09T05:28:31.264Z,35.08
2023-04-09T05:31:13.125Z,33.40
2023-04-09T05:33:49.041Z,33.38
2023-04-09T05:36:23.128Z,32.55
2023-04-09T05:38:53.043Z,33.90
2023-04-09T05:41:21.554Z,34.72
2023-04-09T05:44:09.756Z,34.58
2023-04-09T05:46:40.631Z,33.33
2023-04-09T05:49:09.846Z,30.65
2023-04-09T05:51:39.781Z,33.47
2023-04-09T05:54:08.003Z,36.15
2023-04-09T05:56:38.866Z,34.05
2023-04-09T05:59:09.231Z,32.65
2023-04-09T06:01:37.545Z,33.55
2023-04-09T06:04:06.430Z,35.38
2023-04-09T06:06:35.820Z,35.17
2023-04-09T06:09:04.605Z,31.65
2023-04-09T06:11:33.827Z,32.88
2023-04-09T06:14:01.937Z,31.60
2023-04-09T06:16:31.990Z,32.47
2023-04-09T06:19:00.620Z,34.17
2023-04-09T06:21:29.306Z,33.88
2023-04-09T06:23:57.864Z,34.45
2023-04-09T06:26:26.250Z,33.83
2023-04-09T06:28:54.683Z,32.58
2023-04-09T06:31:23.283Z,34.47
2023-04-09T06:33:53.069Z,35.70
2023-04-09T06:36:21.721Z,34.97
2023-04-09T06:38:49.697Z,33.40
2023-04-09T06:41:17.841Z,33.53
2023-04-09T06:43:46.085Z,34.28
2023-04-09T06:46:17.304Z,31.15
2023-04-09T06:48:45.433Z,30.75
2023-04-09T06:51:16.169Z,28.88
2023-04-09T06:53:44.416Z,30.92
2023-04-09T06:56:12.917Z,23.75
2023-04-09T06:58:41.265Z,25.40
2023-04-09T07:01:09.575Z,23.88
2023-04-09T07:03:37.913Z,24.77
2023-04-09T07:06:06.089Z,25.77
2023-04-09T07:08:36.210Z,24.98
2023-04-09T07:11:04.741Z,24.08
2023-04-09T07:13:33.665Z,22.20
2023-04-09T07:16:02.027Z,22.42
2023-04-09T07:18:30.614Z,22.77
2023-04-09T07:20:59.402Z,22.75
2023-04-09T07:23:27.749Z,23.10
2023-04-09T07:25:57.423Z,23.55
2023-04-09T07:28:25.386Z,26.08
2023-04-09T07:30:54.008Z,24.95
2023-04-09T07:33:22.965Z,23.20
2023-04-09T07:35:51.302Z,23.45
2023-04-09T07:38:19.549Z,24.48
2023-04-09T07:40:47.526Z,24.05
2023-04-09T07:43:17.458Z,23.95
2023-04-09T07:45:52.927Z,25.85
2023-04-09T07:48:21.436Z,24.05
2023-04-09T07:50:49.742Z,24.40
2023-04-09T07:53:17.985Z,25.10
2023-04-09T07:55:46.704Z,25.67
2023-04-09T07:58:15.883Z,29.02
2023-04-09T08:00:45.699Z,25.42
2023-04-09T08:03:14.042Z,26.15
2023-04-09T08:05:42.539Z,26.13
2023-04-09T08:08:10.855Z,22.83
2023-04-09T08:10:39.184Z,23.40
2023-04-09T08:13:07.444Z,22.52
2023-04-09T08:15:36.911Z,21.60
2023-04-09T08:18:06.722Z,19.33
2023-04-09T08:20:34.932Z,20.00
2023-04-09T08:23:03.317Z,19.52
2023-04-09T08:25:31.552Z,17.75
2023-04-09T08:27:59.584Z,22.02
2023-04-09T08:30:27.655Z,19.65
2023-04-09T08:32:56.229Z,20.98
2023-04-09T08:35:26.123Z,22.58
2023-04-09T08:37:54.400Z,20.63
2023-04-09T08:40:22.926Z,21.02
2023-04-09T08:42:56.841Z,19.55
2023-04-09T08:45:50.093Z,20.25
2023-04-09T08:48:19.628Z,23.23
2023-04-09T08:50:49.875Z,19.63
2023-04-09T08:53:18.974Z,20.13
2023-04-09T08:55:47.826Z,21.33
2023-04-09T08:58:16.419Z,21.48
2023-04-09T09:00:44.909Z,20.83
2023-04-09T09:03:14.544Z,19.83
2023-04-09T09:05:44.127Z,19.65
2023-04-09T09:08:24.954Z,18.10
2023-04-09T09:10:53.741Z,17.58
2023-04-09T09:13:26.289Z,18.40
2023-04-09T09:15:56.812Z,18.02
2023-04-09T09:18:39.028Z,19.20
2023-04-09T09:21:14.455Z,19.02
2023-04-09T09:23:45.449Z,17.08
2023-04-09T09:26:14.867Z,17.70
2023-04-09T09:28:43.388Z,19.65
2023-04-09T09:31:13.222Z,20.02
2023-04-09T09:33:50.877Z,19.67
2023-04-09T09:36:33.657Z,17.65
2023-04-09T09:39:09.952Z,18.15
2023-04-09T09:41:38.945Z,18.92
2023-04-09T09:44:08.532Z,15.18
2023-04-09T09:46:38.841Z,15.82
2023-04-09T09:49:07.683Z,17.35
2023-04-09T09:51:39.772Z,19.38
2023-04-09T09:54:13.030Z,15.15
2023-04-09T09:56:43.546Z,16.58
2023-04-09T09:59:17.626Z,17.08
2023-04-09T10:01:48.906Z,16.67
2023-04-09T10:04:19.735Z,18.60
2023-04-09T10:06:52.148Z,16.98
2023-04-09T10:09:24.638Z,18.20
2023-04-09T10:11:53.555Z,18.08
2023-04-09T10:14:23.346Z,17.80
2023-04-09T10:16:52.515Z,16.52
2023-04-09T10:19:22.419Z,17.15
2023-04-09T10:21:55.094Z,16.20
2023-04-09T10:24:26.019Z,15.75
2023-04-09T10:26:56.173Z,13.98
2023-04-09T10:29:30.424Z,14.25
2023-04-09T10:32:06.969Z,14.05
2023-04-09T10:34:37.538Z,11.52
2023-04-09T10:37:09.661Z,12.65
2023-04-09T10:39:45.095Z,11.32
2023-04-09T10:42:16.279Z,13.05
2023-04-09T10:44:45.051Z,10.80
2023-04-09T10:47:13.730Z,10.57
2023-04-09T10:49:44.621Z,12.68
2023-04-09T10:52:13.818Z,14.38
2023-04-09T10:54:46.395Z,15.05
2023-04-09T10:57:23.044Z,15.68
2023-04-09T10:59:52.949Z,14.32
2023-04-09T11:03:09.712Z,12.50
2023-04-09T11:05:39.275Z,13.52
2023-04-09T11:08:10.838Z,13.93
2023-04-09T11:10:42.135Z,14.10
2023-04-09T11:13:13.276Z,11.90
2023-04-09T11:15:42.136Z,12.38
2023-04-09T11:18:12.107Z,13.20
2023-04-09T11:20:40.931Z,12.48
2023-04-09T11:23:09.070Z,13.02
2023-04-09T11:25:37.649Z,11.90
2023-04-09T11:28:08.576Z,13.52
2023-04-09T11:30:38.705Z,14.45
2023-04-09T11:33:08.828Z,14.07
2023-04-09T11:35:37.692Z,14.30
2023-04-09T11:38:09.815Z,12.68
2023-04-09T11:40:43.610Z,13.65
2023-04-09T11:43:13.166Z,12.30
2023-04-09T11:45:41.959Z,13.40
2023-04-09T11:48:10.313Z,12.93
2023-04-09T11:50:39.037Z,13.27
2023-04-09T11:53:18.264Z,11.48
2023-04-09T11:55:48.761Z,14.85
2023-04-09T11:58:18.866Z,11.55
2023-04-09T12:00:47.141Z,13.82
2023-04-09T12:03:17.195Z,12.85
2023-04-09T12:05:50.996Z,13.38
2023-04-09T12:08:24.421Z,13.82
2023-04-09T12:10:53.864Z,12.88
2023-04-09T12:13:33.861Z,10.52
2023-04-09T12:16:02.773Z,12.77
2023-04-09T12:18:31.014Z,14.95
2023-04-09T12:21:01.231Z,13.77
2023-04-09T12:23:31.506Z,14.60
2023-04-09T12:26:01.391Z,15.02
2023-04-09T12:28:31.329Z,14.60
2023-04-09T12:30:59.760Z,13.75
2023-04-09T12:33:28.110Z,13.27
2023-04-09T12:35:58.440Z,13.80
2023-04-09T12:38:26.917Z,10.65
2023-04-09T12:40:55.517Z,14.82
2023-04-09T12:43:23.861Z,12.82
2023-04-09T12:45:53.566Z,13.82
2023-04-09T12:48:21.868Z,14.30
2023-04-09T12:50:50.327Z,13.63
2023-04-09T12:53:18.551Z,14.25
2023-04-09T12:55:46.933Z,14.40
2023-04-09T12:58:15.464Z,15.02
2023-04-09T13:00:43.864Z,14.38
2023-04-09T13:03:16.846Z,14.18
2023-04-09T13:05:46.032Z,14.75
2023-04-09T13:08:14.048Z,14.13
2023-04-09T13:10:42.423Z,14.57
2023-04-09T13:13:13.023Z,14.68
2023-04-09T13:15:43.384Z,13.00
2023-04-09T13:18:11.885Z,11.65
2023-04-09T13:20:41.625Z,10.77
2023-04-09T13:23:09.962Z,14.05
2023-04-09T13:25:38.072Z,12.50
2023-04-09T13:28:06.601Z,11.90
2023-04-09T13:30:34.924Z,13.60
2023-04-09T13:33:03.156Z,14.13
2023-04-09T13:35:32.129Z,16.45
2023-04-09T13:38:02.304Z,15.73
2023-04-09T13:40:30.951Z,16.30
2023-04-09T13:42:59.137Z,14.75
2023-04-09T13:45:27.279Z,15.77
2023-04-09T13:47:55.340Z,15.90
2023-04-09T13:50:23.695Z,15.10
2023-04-09T13:52:51.992Z,16.80
2023-04-09T13:55:21.844Z,13.38
2023-04-09T13:57:49.883Z,11.90
2023-04-09T14:00:19.956Z,13.35
2023-04-09T14:02:48.432Z,11.13
2023-04-09T14:05:16.682Z,12.65
2023-04-09T14:07:44.923Z,11.43
2023-04-09T14:10:13.510Z,13.02
2023-04-09T14:12:43.302Z,13.95
2023-04-09T14:15:12.398Z,13.65
2023-04-09T14:17:41.227Z,13.00
2023-04-09T14:20:10.607Z,12.93
2023-04-09T14:22:40.127Z,14.00
2023-04-09T14:25:14.040Z,14.45
2023-04-09T14:27:44.847Z,14.82
2023-04-09T14:30:14.108Z,14.70
2023-04-09T14:32:43.298Z,16.00
2023-04-09T14:35:12.045Z,14.55
2023-04-09T14:37:41.148Z,16.20
2023-04-09T14:40:10.493Z,14.65
2023-04-09T14:42:39.244Z,15.75
2023-04-09T14:45:13.182Z,15.45
2023-04-09T14:47:41.606Z,13.10
2023-04-09T14:50:12.905Z,13.90
2023-04-09T14:52:41.146Z,18.40
2023-04-09T14:55:12.630Z,11.02
2023-04-09T14:57:41.880Z,10.27
2023-04-09T15:00:13.431Z,10.05
2023-04-09T15:02:42.275Z,10.00
2023-04-09T15:05:12.230Z,11.45
2023-04-09T15:07:41.106Z,9.88
2023-04-09T15:10:10.281Z,14.07
2023-04-09T15:12:38.302Z,14.95
2023-04-09T15:15:08.709Z,12.07
2023-04-09T15:17:39.153Z,11.43
2023-04-09T15:20:08.936Z,12.20
2023-04-09T15:22:37.363Z,10.98
2023-04-09T15:25:06.347Z,10.60
2023-04-09T15:27:34.504Z,10.88
2023-04-09T15:30:03.563Z,11.10
2023-04-09T15:32:32.837Z,11.73
2023-04-09T15:35:03.446Z,11.13
2023-04-09T15:37:32.204Z,11.23
2023-04-09T15:40:00.599Z,12.68
2023-04-09T15:42:36.414Z,11.60
2023-04-09T15:45:08.077Z,11.95
2023-04-09T15:47:36.458Z,12.43
2023-04-09T15:50:07.665Z,13.35
2023-04-09T15:52:36.443Z,12.80
2023-04-09T15:55:04.711Z,13.75
2023-04-09T15:57:33.411Z,14.32
2023-04-09T16:00:01.718Z,14.15
2023-04-09T16:02:34.657Z,14.05
2023-04-09T16:05:03.146Z,18.00
2023-04-09T16:07:32.996Z,14.80
2023-04-09T16:10:02.045Z,15.23
2023-04-09T16:12:30.716Z,15.00
2023-04-09T16:14:59.646Z,13.50
2023-04-09T16:17:28.631Z,20.98
2023-04-09T16:19:57.184Z,19.98
2023-04-09T16:22:25.466Z,21.70
2023-04-09T16:24:55.187Z,20.20
2023-04-09T16:27:23.298Z,29.48
2023-04-09T16:29:52.306Z,29.08
2023-04-09T16:32:21.220Z,20.55
2023-04-09T16:34:49.539Z,17.55
2023-04-09T16:37:17.927Z,19.50
2023-04-09T16:39:46.188Z,19.45
2023-04-09T16:42:15.956Z,30.70
2023-04-09T16:44:44.071Z,26.77
2023-04-09T16:47:12.506Z,18.20
2023-04-09T16:49:40.938Z,17.30
2023-04-09T16:52:09.015Z,18.83
2023-04-09T16:54:37.250Z,19.42
2023-04-09T16:57:05.444Z,20.92
2023-04-09T16:59:35.580Z,18.77
2023-04-09T17:02:07.303Z,17.60
2023-04-09T17:04:37.749Z,17.23
2023-04-09T17:07:06.282Z,16.65
2023-04-09T17:09:35.873Z,16.48
2023-04-09T17:12:04.532Z,20.33
2023-04-09T17:14:34.633Z,17.13
2023-04-09T17:17:05.543Z,19.08
2023-04-09T17:19:34.135Z,18.45
2023-04-09T17:22:02.960Z,19.55
2023-04-09T17:24:32.157Z,18.30
2023-04-09T17:27:01.059Z,17.30
2023-04-09T17:29:29.361Z,20.60
2023-04-09T17:31:57.967Z,22.38
2023-04-09T17:34:28.388Z,20.58
2023-04-09T17:37:00.245Z,21.45
2023-04-09T17:39:29.897Z,20.88
2023-04-09T17:41:58.518Z,25.00
2023-04-09T17:44:28.438Z,21.20
2023-04-09T17:46:56.526Z,22.80
2023-04-09T17:49:24.792Z,22.23
2023-04-09T17:51:55.924Z,26.20
2023-04-09T17:54:24.520Z,26.23
2023-04-09T17:56:53.269Z,23.77
2023-04-09T17:59:22.016Z,21.75
2023-04-09T18:01:50.931Z,26.15
2023-04-09T18:04:19.942Z,20.90
2023-04-09T18:06:48.685Z,25.13
2023-04-09T18:09:19.518Z,29.05
2023-04-09T18:11:49.004Z,28.45
2023-04-09T18:14:18.041Z,21.33
2023-04-09T18:16:46.457Z,24.13
2023-04-09T18:19:15.791Z,18.10
2023-04-09T18:21:45.150Z,18.80
2023-04-09T18:24:13.774Z,18.83
2023-04-09T18:26:43.794Z,16.98
2023-04-09T18:29:11.960Z,17.58
2023-04-09T18:31:40.156Z,17.42
2023-04-09T18:34:08.425Z,20.38
2023-04-09T18:36:36.544Z,29.88
2023-04-09T18:39:06.766Z,23.60
2023-04-09T18:41:34.922Z,19.58
2023-04-09T18:44:05.452Z,19.92
2023-04-09T18:46:33.825Z,17.00
2023-04-09T18:49:02.257Z,16.80
2023-04-09T18:51:32.135Z,20.33
2023-04-09T18:54:01.033Z,27.17
2023-04-09T18:56:29.979Z,20.23
2023-04-09T18:59:22.278Z,21.40
2023-04-09T19:01:52.058Z,18.67
2023-04-09T19:04:20.808Z,22.83
2023-04-09T19:06:50.207Z,20.25
2023-04-09T19:09:18.695Z,19.77
2023-04-09T19:11:47.347Z,18.15
2023-04-09T19:14:15.525Z,15.50
2023-04-09T19:16:44.843Z,15.02
2023-04-09T19:19:14.686Z,15.63
2023-04-09T19:21:43.196Z,13.88
2023-04-09T19:24:11.844Z,14.52
2023-04-09T19:26:40.454Z,15.10
2023-04-09T19:29:09.933Z,13.35
2023-04-09T19:31:38.077Z,15.75
2023-04-09T19:34:07.062Z,14.70
2023-04-09T19:36:37.004Z,15.48
2023-04-09T19:39:07.944Z,16.08
2023-04-09T19:41:37.159Z,15.52
2023-04-09T19:44:07.437Z,15.60
2023-04-09T19:46:36.609Z,14.02
2023-04-09T19:49:05.355Z,13.95
2023-04-09T19:51:33.864Z,13.50
2023-04-09T19:54:03.821Z,16.33
2023-04-09T19:56:32.982Z,14.50
2023-04-09T19:59:02.656Z,18.63
2023-04-09T20:01:31.466Z,17.45
2023-04-09T20:04:00.413Z,25.08
2023-04-09T20:06:29.135Z,28.45
2023-04-09T20:08:58.125Z,26.33
2023-04-09T20:11:28.837Z,20.60
2023-04-09T20:13:57.566Z,19.45
2023-04-09T20:16:26.365Z,18.80
2023-04-09T20:18:54.677Z,16.95
2023-04-09T20:21:23.609Z,16.70
2023-04-09T20:23:51.897Z,16.88
2023-04-09T20:26:20.376Z,15.02
2023-04-09T20:28:50.996Z,16.55
2023-04-09T20:31:20.229Z,16.33
2023-04-09T20:33:48.816Z,15.20
2023-04-09T20:36:17.651Z,13.88
2023-04-09T20:38:46.707Z,13.05
2023-04-09T20:41:15.029Z,14.93
2023-04-09T20:43:43.484Z,14.82
2023-04-09T20:46:13.838Z,14.63
2023-04-09T20:48:42.840Z,16.50
2023-04-09T20:51:12.007Z,15.27
2023-04-09T20:53:40.210Z,17.10
2023-04-09T20:56:11.527Z,19.05
2023-04-09T20:58:42.606Z,17.67
2023-04-09T21:01:11.227Z,17.17
2023-04-09T21:03:41.535Z,16.08
2023-04-09T21:06:10.100Z,16.85
2023-04-09T21:08:42.742Z,17.25
2023-04-09T21:11:11.580Z,18.00
2023-04-09T21:13:53.188Z,16.85
2023-04-09T21:16:23.658Z,14.88
2023-04-09T21:18:53.529Z,18.40
2023-04-09T21:21:21.965Z,15.93
2023-04-09T21:23:50.131Z,17.15
2023-04-09T21:26:18.398Z,17.70
2023-04-09T21:28:50.561Z,17.42
2023-04-09T21:31:19.105Z,16.58
2023-04-09T21:33:47.828Z,19.10
2023-04-09T21:36:18.254Z,17.02
2023-04-09T21:38:46.510Z,18.67
2023-04-09T21:41:14.877Z,17.40
2023-04-09T21:43:42.957Z,16.52
2023-04-09T21:46:11.089Z,19.20
2023-04-09T21:48:40.995Z,18.00
2023-04-09T21:53:41.553Z,21.42
2023-04-09T21:56:10.618Z,22.05
2023-04-09T21:58:38.903Z,24.95
2023-04-09T22:01:15.805Z,24.20
2023-04-09T22:03:51.458Z,21.50
2023-04-09T22:06:19.758Z,20.77
2023-04-09T22:08:56.166Z,20.58
2023-04-09T22:11:28.083Z,20.17
2023-04-09T22:13:57.663Z,19.38
2023-04-09T22:16:26.595Z,15.88
2023-04-09T22:18:56.596Z,14.55
2023-04-09T22:21:26.586Z,15.27
2023-04-09T22:23:56.726Z,16.08
2023-04-09T22:26:25.035Z,15.82
2023-04-09T22:28:54.832Z,16.10
2023-04-09T22:31:24.919Z,16.40
2023-04-09T22:33:53.484Z,16.63
2023-04-09T22:36:22.982Z,16.80
2023-04-09T22:38:51.974Z,17.90
2023-04-09T22:41:23.292Z,17.15
2023-04-09T22:43:52.503Z,14.25
2023-04-09T22:46:21.424Z,14.40
2023-04-09T22:48:51.675Z,15.32
2023-04-09T22:51:20.351Z,14.70
2023-04-09T22:53:48.774Z,16.08
2023-04-09T22:56:16.975Z,15.45
2023-04-09T22:58:46.627Z,18.02
2023-04-09T23:01:14.696Z,23.02
2023-04-09T23:04:08.456Z,23.65
2023-04-09T23:06:37.870Z,23.70
2023-04-09T23:09:05.996Z,25.77
2023-04-09T23:11:34.114Z,25.70
2023-04-09T23:14:03.863Z,25.33
2023-04-09T23:16:32.613Z,27.50
2023-04-09T23:19:00.993Z,24.55
2023-04-09T23:21:29.173Z,22.20
2023-04-09T23:23:57.340Z,21.58
2023-04-09T23:26:25.759Z,23.42
2023-04-09T23:28:54.193Z,20.65
2023-04-09T23:31:24.120Z,24.02
2023-04-09T23:33:53.017Z,22.02
2023-04-09T23:36:21.993Z,22.35
2023-04-09T23:38:50.526Z,20.23
2023-04-09T23:41:19.152Z,21.30
2023-04-09T23:43:47.590Z,21.33
2023-04-09T23:46:15.757Z,22.33
2023-04-09T23:48:46.851Z,21.88
2023-04-09T23:51:18.407Z,22.63
2023-04-09T23:53:46.724Z,22.17
2023-04-09T23:56:15.014Z,24.55
2023-04-09T23:58:43.683Z,22.40
